Time;durP1;ratioP1;P1;durP2;ratioP2;P2;SDS_P1;SDS_P2;PMS_P1;PMS_P2;Temp;Humidity;BMP_temperature;BMP_pressure;BME280_temperature;BME280_humidity;BME280_pressure;Samples;Min_cycle;Max_cycle;Signal;HPM_P1;HPM_P2
2022/03/27 00:00:22;;;;;;;8.52;3.65;;;;;;;;;;5044116;28;20017;-50
2022/03/27 00:02:47;;;;;;;6.03;3.15;;;;;;;;;;5044542;28;20029;-50
2022/03/27 00:05:13;;;;;;;5.93;3.10;;;;;;;;;;5044232;28;20419;-51
2022/03/27 00:07:38;;;;;;;5.88;3.17;;;;;;;;;;5049211;28;20275;-49
2022/03/27 00:10:04;;;;;;;6.10;3.58;;;;;;;;;;5064340;28;20638;-50
2022/03/27 00:12:29;;;;;;;6.32;3.05;;;;;;;;;;5063727;28;20016;-49
2022/03/27 00:14:54;;;;;;;7.70;3.27;;;;;;;;;;5064166;28;20044;-50
2022/03/27 00:17:19;;;;;;;7.20;3.38;;;;;;;;;;5064022;28;20828;-50
2022/03/27 00:19:45;;;;;;;6.97;3.63;;;;;;;;;;5063945;28;20027;-51
2022/03/27 00:22:10;;;;;;;8.63;4.15;;;;;;;;;;5063637;28;20031;-50
2022/03/27 00:24:35;;;;;;;7.47;3.72;;;;;;;;;;5063627;28;20025;-51
2022/03/27 00:27:00;;;;;;;7.60;3.83;;;;;;;;;;5046136;28;20028;-51
2022/03/27 00:29:26;;;;;;;5.80;3.00;;;;;;;;;;5063829;28;20033;-51
2022/03/27 00:31:51;;;;;;;6.97;3.60;;;;;;;;;;5063900;28;20276;-51
2022/03/27 00:34:18;;;;;;;8.20;4.90;;;;;;;;;;5063664;28;20032;-51
2022/03/27 00:36:45;;;;;;;7.38;3.78;;;;;;;;;;5063572;28;20432;-49
2022/03/27 00:39:10;;;;;;;7.15;3.30;;;;;;;;;;5063923;28;20148;-48
2022/03/27 00:41:35;;;;;;;7.25;3.80;;;;;;;;;;5063813;28;20095;-51
2022/03/27 00:44:00;;;;;;;6.87;3.43;;;;;;;;;;5063985;28;20055;-52
2022/03/27 00:46:26;;;;;;;7.00;3.47;;;;;;;;;;5063439;28;20283;-50
2022/03/27 00:48:51;;;;;;;7.30;3.40;;;;;;;;;;5063628;28;20290;-51
2022/03/27 00:51:16;;;;;;;6.40;3.40;;;;;;;;;;5063391;28;20047;-51
2022/03/27 00:53:42;;;;;;;8.95;5.68;;;;;;;;;;5063585;28;20275;-50
2022/03/27 00:56:07;;;;;;;7.20;4.38;;;;;;;;;;5063568;28;20040;-51
2022/03/27 00:58:32;;;;;;;8.07;4.43;;;;;;;;;;5063724;28;20637;-49
2022/03/27 01:01:04;;;;;;;7.73;4.60;;;;;;;;;;5063507;28;20271;-49
2022/03/27 01:03:31;;;;;;;7.30;3.95;;;;;;;;;;5063844;28;20845;-50
2022/03/27 01:05:57;;;;;;;9.20;4.57;;;;;;;;;;5063041;28;20075;-50
2022/03/27 01:11:14;;;;;;;7.28;3.63;;;;;;;;;;5062997;28;20044;-50
2022/03/27 01:13:43;;;;;;;7.68;4.65;;;;;;;;;;5063425;28;20201;-50
2022/03/27 01:16:26;;;;;;;7.22;3.70;;;;;;;;;;5062828;28;20017;-51
2022/03/27 01:18:52;;;;;;;9.90;6.82;;;;;;;;;;5053448;28;20029;-49
2022/03/27 01:21:17;;;;;;;8.30;4.00;;;;;;;;;;5052269;28;20162;-50
2022/03/27 01:23:42;;;;;;;9.33;5.07;;;;;;;;;;5062920;28;20335;-50
2022/03/27 01:26:07;;;;;;;8.60;4.33;;;;;;;;;;5063050;28;20354;-50
2022/03/27 01:28:33;;;;;;;9.18;5.38;;;;;;;;;;5045110;28;20388;-51
2022/03/27 01:30:58;;;;;;;10.60;7.47;;;;;;;;;;5062782;28;20112;-51
2022/03/27 01:33:23;;;;;;;11.95;7.13;;;;;;;;;;5062770;28;20029;-51
2022/03/27 01:35:48;;;;;;;10.23;6.50;;;;;;;;;;5062654;28;20024;-50
2022/03/27 01:38:14;;;;;;;6.97;5.07;;;;;;;;;;5061736;28;21133;-51
2022/03/27 01:40:39;;;;;;;8.67;5.33;;;;;;;;;;5046588;28;20298;-51
2022/03/27 01:43:04;;;;;;;8.20;4.00;;;;;;;;;;5062654;28;20099;-51
2022/03/27 01:45:29;;;;;;;7.93;3.70;;;;;;;;;;5062424;28;20024;-51
2022/03/27 01:47:55;;;;;;;9.57;7.68;;;;;;;;;;5061250;28;20025;-51
2022/03/27 01:50:20;;;;;;;7.97;4.10;;;;;;;;;;5062221;28;20035;-51
2022/03/27 01:52:45;;;;;;;9.47;7.20;;;;;;;;;;5062659;28;20263;-50
2022/03/27 01:55:16;;;;;;;8.87;5.43;;;;;;;;;;5062376;28;20039;-50
2022/03/27 01:57:42;;;;;;;10.15;8.93;;;;;;;;;;5062266;28;20869;-50
2022/03/27 02:00:09;;;;;;;8.38;5.20;;;;;;;;;;5062176;28;20031;-51
2022/03/27 02:02:34;;;;;;;11.68;10.45;;;;;;;;;;5062304;28;20021;-51
2022/03/27 02:05:01;;;;;;;17.50;13.52;;;;;;;;;;5062171;28;20024;-52
2022/03/27 02:07:26;;;;;;;9.75;7.82;;;;;;;;;;5063046;28;20052;-50
2022/03/27 02:09:52;;;;;;;12.70;9.20;;;;;;;;;;5062685;28;20047;-51
2022/03/27 02:12:17;;;;;;;7.77;4.97;;;;;;;;;;5062020;28;20523;-51
2022/03/27 02:14:43;;;;;;;11.73;7.90;;;;;;;;;;5062364;28;20258;-51
2022/03/27 02:17:09;;;;;;;14.30;9.15;;;;;;;;;;5062457;28;20498;-51
2022/03/27 02:19:35;;;;;;;10.77;6.40;;;;;;;;;;5050939;28;20025;-51
2022/03/27 02:22:00;;;;;;;9.75;6.72;;;;;;;;;;5056929;28;20714;-51
2022/03/27 02:24:26;;;;;;;11.73;9.27;;;;;;;;;;5061688;28;20020;-50
2022/03/27 02:26:51;;;;;;;10.87;9.40;;;;;;;;;;5061948;28;20446;-49
2022/03/27 02:29:16;;;;;;;16.97;14.53;;;;;;;;;;5061908;28;20486;-49
2022/03/27 02:31:42;;;;;;;11.88;10.32;;;;;;;;;;5062119;28;20763;-50
2022/03/27 02:34:07;;;;;;;15.43;13.93;;;;;;;;;;5061611;28;20035;-51
2022/03/27 02:36:32;;;;;;;11.90;8.80;;;;;;;;;;5061344;28;20463;-49
2022/03/27 02:38:57;;;;;;;8.80;4.40;;;;;;;;;;5055343;28;20259;-50
2022/03/27 02:41:23;;;;;;;6.67;3.73;;;;;;;;;;5051371;28;20275;-50
2022/03/27 02:43:48;;;;;;;8.50;5.00;;;;;;;;;;5061281;28;20302;-50
2022/03/27 02:46:13;;;;;;;8.47;4.67;;;;;;;;;;5043762;28;20282;-51
2022/03/27 02:48:38;;;;;;;11.35;4.93;;;;;;;;;;5061733;28;20693;-50
2022/03/27 02:51:05;;;;;;;7.67;4.93;;;;;;;;;;5061819;28;20037;-51
2022/03/27 02:53:30;;;;;;;7.55;3.88;;;;;;;;;;5061541;28;20266;-49
2022/03/27 02:55:56;;;;;;;10.18;5.28;;;;;;;;;;5061823;28;20105;-51
2022/03/27 02:58:21;;;;;;;17.48;15.63;;;;;;;;;;5061521;28;20029;-51
2022/03/27 03:00:46;;;;;;;9.75;6.28;;;;;;;;;;5061818;28;20038;-51
2022/03/27 03:03:13;;;;;;;11.70;7.78;;;;;;;;;;5061776;28;20028;-51
2022/03/27 03:05:39;;;;;;;19.05;17.13;;;;;;;;;;5061376;28;20484;-51
2022/03/27 03:08:04;;;;;;;11.63;8.48;;;;;;;;;;5061593;28;20048;-50
2022/03/27 03:10:29;;;;;;;16.65;14.77;;;;;;;;;;5061492;28;20040;-49
2022/03/27 03:12:55;;;;;;;11.85;8.88;;;;;;;;;;5061553;28;20396;-50
2022/03/27 03:15:22;;;;;;;9.05;5.57;;;;;;;;;;5061643;28;20039;-48
2022/03/27 03:17:47;;;;;;;9.23;7.60;;;;;;;;;;5061659;28;20541;-50
2022/03/27 03:20:12;;;;;;;15.82;13.15;;;;;;;;;;5061718;28;20107;-49
2022/03/27 03:22:40;;;;;;;11.77;9.13;;;;;;;;;;5061427;28;20021;-51
2022/03/27 03:25:05;;;;;;;15.55;11.85;;;;;;;;;;5046990;28;20159;-51
2022/03/27 03:27:31;;;;;;;11.77;7.72;;;;;;;;;;5065262;28;20099;-49
2022/03/27 03:29:56;;;;;;;13.18;11.82;;;;;;;;;;5065044;28;20040;-50
2022/03/27 03:32:23;;;;;;;21.27;18.90;;;;;;;;;;5065038;28;20025;-48
2022/03/27 03:34:49;;;;;;;11.68;9.75;;;;;;;;;;5063588;28;20043;-50
2022/03/27 03:37:14;;;;;;;14.07;12.67;;;;;;;;;;5065217;28;20029;-49
2022/03/27 03:39:39;;;;;;;27.63;22.90;;;;;;;;;;5065036;28;20321;-48
2022/03/27 03:42:04;;;;;;;27.57;22.90;;;;;;;;;;5065167;28;20274;-50
2022/03/27 03:44:29;;;;;;;28.20;25.17;;;;;;;;;;5064666;28;20025;-50
2022/03/27 03:46:55;;;;;;;19.77;18.00;;;;;;;;;;5063937;28;20035;-48
2022/03/27 03:49:20;;;;;;;16.37;14.73;;;;;;;;;;5064295;28;21193;-48
2022/03/27 03:51:45;;;;;;;20.48;18.10;;;;;;;;;;5064813;28;20269;-50
2022/03/27 03:54:11;;;;;;;18.50;16.70;;;;;;;;;;5064593;28;20040;-50
2022/03/27 03:56:36;;;;;;;13.83;10.93;;;;;;;;;;5064369;28;20538;-49
2022/03/27 03:59:01;;;;;;;14.05;10.48;;;;;;;;;;5064364;28;20415;-48
2022/03/27 04:01:27;;;;;;;11.95;10.57;;;;;;;;;;5057326;28;20668;-49
2022/03/27 04:03:52;;;;;;;9.50;8.50;;;;;;;;;;5057816;28;20021;-50
2022/03/27 04:06:17;;;;;;;15.25;13.52;;;;;;;;;;5064045;28;20785;-50
2022/03/27 04:08:42;;;;;;;17.98;15.77;;;;;;;;;;5064250;28;20044;-49
2022/03/27 04:11:14;;;;;;;28.17;25.10;;;;;;;;;;5046328;28;20028;-50
2022/03/27 04:13:40;;;;;;;17.27;15.73;;;;;;;;;;5064278;28;20343;-50
2022/03/27 04:16:05;;;;;;;25.45;23.00;;;;;;;;;;5060591;28;20670;-49
2022/03/27 04:18:31;;;;;;;25.13;22.73;;;;;;;;;;5057677;28;20012;-51
2022/03/27 04:20:56;;;;;;;19.93;18.03;;;;;;;;;;5063611;28;20017;-50
2022/03/27 04:23:21;;;;;;;25.03;22.73;;;;;;;;;;5063334;28;20271;-50
2022/03/27 04:25:46;;;;;;;29.52;26.70;;;;;;;;;;5063204;28;20259;-49
2022/03/27 04:28:12;;;;;;;31.53;28.53;;;;;;;;;;5063446;28;20492;-51
2022/03/27 04:30:39;;;;;;;36.97;33.27;;;;;;;;;;5065217;28;20032;-50
2022/03/27 04:33:05;;;;;;;31.20;28.35;;;;;;;;;;5066662;28;20273;-50
2022/03/27 04:35:31;;;;;;;12.57;8.13;;;;;;;;;;5070781;28;20020;-50
2022/03/27 04:37:56;;;;;;;10.57;8.90;;;;;;;;;;5046996;28;20029;-49
2022/03/27 04:40:22;;;;;;;11.23;7.73;;;;;;;;;;5061952;28;20024;-53
2022/03/27 04:42:47;;;;;;;14.35;12.80;;;;;;;;;;5059552;28;20024;-49
2022/03/27 04:45:12;;;;;;;15.00;13.17;;;;;;;;;;5059804;28;20086;-50
2022/03/27 04:47:38;;;;;;;14.57;10.70;;;;;;;;;;5060426;28;20270;-50
2022/03/27 04:50:04;;;;;;;22.85;20.38;;;;;;;;;;5059909;28;20043;-50
2022/03/27 04:52:30;;;;;;;16.83;12.38;;;;;;;;;;5059556;28;20028;-50
2022/03/27 04:54:55;;;;;;;13.83;10.70;;;;;;;;;;5055067;28;20016;-50
2022/03/27 04:57:21;;;;;;;17.20;12.93;;;;;;;;;;5055482;28;20282;-49
2022/03/27 04:59:46;;;;;;;32.38;28.88;;;;;;;;;;5054499;28;20009;-50
2022/03/27 05:02:12;;;;;;;60.72;48.05;;;;;;;;;;5055553;28;20120;-50
2022/03/27 05:04:40;;;;;;;58.10;46.50;;;;;;;;;;5054946;28;20031;-49
2022/03/27 05:07:05;;;;;;;57.55;47.45;;;;;;;;;;5051977;28;20009;-50
2022/03/27 05:09:30;;;;;;;64.77;51.03;;;;;;;;;;5052137;28;20081;-48
2022/03/27 05:11:55;;;;;;;40.87;36.80;;;;;;;;;;5056593;28;20032;-48
2022/03/27 05:14:21;;;;;;;37.37;33.53;;;;;;;;;;5056405;28;20090;-49
2022/03/27 05:16:47;;;;;;;40.58;36.50;;;;;;;;;;5050574;28;20034;-49
2022/03/27 05:19:12;;;;;;;26.33;23.85;;;;;;;;;;5041312;28;20025;-49
2022/03/27 05:21:37;;;;;;;23.37;21.17;;;;;;;;;;5045386;28;20658;-48
2022/03/27 05:24:03;;;;;;;34.72;31.40;;;;;;;;;;5049385;28;20488;-50
2022/03/27 05:26:28;;;;;;;33.47;30.27;;;;;;;;;;5051492;28;20020;-50
2022/03/27 05:28:54;;;;;;;32.73;29.73;;;;;;;;;;5051065;28;20427;-51
2022/03/27 05:31:19;;;;;;;33.55;30.27;;;;;;;;;;5048423;28;20496;-49
2022/03/27 05:33:45;;;;;;;45.42;40.83;;;;;;;;;;5035245;28;20020;-50
2022/03/27 05:36:10;;;;;;;45.73;41.33;;;;;;;;;;5046300;28;20177;-50
2022/03/27 05:38:37;;;;;;;66.72;53.20;;;;;;;;;;5045867;28;20283;-49
2022/03/27 05:41:02;;;;;;;81.85;66.00;;;;;;;;;;5057263;28;20024;-50
2022/03/27 05:43:28;;;;;;;79.40;60.37;;;;;;;;;;5061526;28;20021;-49
2022/03/27 05:45:56;;;;;;;68.78;54.67;;;;;;;;;;5058324;28;20282;-51
2022/03/27 05:48:21;;;;;;;38.22;32.20;;;;;;;;;;5054176;28;20104;-50
2022/03/27 05:50:46;;;;;;;45.50;40.30;;;;;;;;;;5061462;28;20732;-51
2022/03/27 05:53:11;;;;;;;45.57;40.97;;;;;;;;;;5053673;28;20767;-50
2022/03/27 05:55:37;;;;;;;59.00;48.10;;;;;;;;;;5040676;28;20379;-49
2022/03/27 05:58:02;;;;;;;85.43;64.60;;;;;;;;;;5062306;28;20278;-51
2022/03/27 06:00:27;;;;;;;65.97;54.63;;;;;;;;;;5045587;28;20279;-50
2022/03/27 06:02:53;;;;;;;49.08;43.78;;;;;;;;;;5061655;28;20012;-51
2022/03/27 06:05:22;;;;;;;97.18;66.88;;;;;;;;;;5061297;28;20028;-51
2022/03/27 06:07:48;;;;;;;41.03;36.90;;;;;;;;;;5062044;28;20477;-50
2022/03/27 06:10:14;;;;;;;40.13;34.35;;;;;;;;;;5061864;28;20099;-51
2022/03/27 06:12:39;;;;;;;54.97;45.60;;;;;;;;;;5061904;28;20102;-51
2022/03/27 06:15:05;;;;;;;83.25;63.63;;;;;;;;;;5061295;28;20017;-51
2022/03/27 06:17:30;;;;;;;90.95;70.40;;;;;;;;;;5061452;28;20105;-52
2022/03/27 06:19:55;;;;;;;33.00;29.80;;;;;;;;;;5030262;28;20036;-52
2022/03/27 06:22:21;;;;;;;34.80;31.47;;;;;;;;;;5058273;28;20259;-51
2022/03/27 06:24:46;;;;;;;46.97;42.03;;;;;;;;;;5061783;28;20989;-51
2022/03/27 06:27:11;;;;;;;42.40;38.33;;;;;;;;;;5062053;28;20538;-52
2022/03/27 06:29:36;;;;;;;22.67;20.52;;;;;;;;;;5061600;28;20553;-50
2022/03/27 06:32:02;;;;;;;53.13;47.60;;;;;;;;;;5043254;28;20040;-52
2022/03/27 06:34:29;;;;;;;34.15;31.02;;;;;;;;;;5061473;28;20021;-51
2022/03/27 06:36:54;;;;;;;23.67;21.60;;;;;;;;;;5062008;28;20411;-51
2022/03/27 06:39:20;;;;;;;37.78;34.00;;;;;;;;;;5053245;28;20021;-51
2022/03/27 06:41:45;;;;;;;33.88;30.77;;;;;;;;;;5035502;28;20029;-51
2022/03/27 06:44:10;;;;;;;15.60;13.38;;;;;;;;;;5061373;28;20033;-52
2022/03/27 06:46:36;;;;;;;46.37;41.60;;;;;;;;;;5061236;28;20116;-52
2022/03/27 06:49:01;;;;;;;50.37;45.13;;;;;;;;;;5061760;28;20048;-51
2022/03/27 06:51:26;;;;;;;52.83;47.27;;;;;;;;;;5061374;28;20079;-51
2022/03/27 06:53:51;;;;;;;47.97;43.07;;;;;;;;;;5061784;28;20666;-52
2022/03/27 06:56:16;;;;;;;36.43;33.10;;;;;;;;;;5061925;28;20265;-52
2022/03/27 06:58:42;;;;;;;44.92;40.55;;;;;;;;;;5053568;28;20028;-51
2022/03/27 07:03:51;;;;;;;33.22;30.33;;;;;;;;;;5064833;28;20019;-51
2022/03/27 07:06:19;;;;;;;26.73;24.40;;;;;;;;;;5064479;28;20017;-51
2022/03/27 07:08:45;;;;;;;29.38;26.70;;;;;;;;;;5058961;28;20102;-52
2022/03/27 07:11:10;;;;;;;24.73;22.50;;;;;;;;;;5061297;28;20037;-52
2022/03/27 07:13:35;;;;;;;35.73;32.33;;;;;;;;;;5065326;28;20028;-51
2022/03/27 07:16:00;;;;;;;40.23;36.50;;;;;;;;;;5065768;28;20086;-52
2022/03/27 07:18:26;;;;;;;47.60;42.90;;;;;;;;;;5058611;28;20361;-52
2022/03/27 07:20:51;;;;;;;42.70;38.43;;;;;;;;;;5051869;28;20071;-51
2022/03/27 07:23:17;;;;;;;40.50;36.60;;;;;;;;;;5058657;28;20056;-51
2022/03/27 07:25:43;;;;;;;30.77;28.02;;;;;;;;;;5064453;28;20086;-51
2022/03/27 07:28:09;;;;;;;36.85;32.92;;;;;;;;;;5063651;28;20032;-51
2022/03/27 07:30:34;;;;;;;34.28;30.65;;;;;;;;;;5035510;28;20041;-51
2022/03/27 07:32:59;;;;;;;29.67;27.00;;;;;;;;;;5044752;28;20024;-51
2022/03/27 07:35:29;;;;;;;11.87;10.57;;;;;;;;;;5064847;28;20719;-51
2022/03/27 07:37:54;;;;;;;19.30;16.10;;;;;;;;;;5064535;28;20270;-52
2022/03/27 07:40:20;;;;;;;12.33;8.43;;;;;;;;;;5064648;28;20028;-51
2022/03/27 07:42:47;;;;;;;10.55;6.88;;;;;;;;;;5047773;28;20358;-51
2022/03/27 07:45:12;;;;;;;13.32;10.80;;;;;;;;;;5069954;28;20032;-51
2022/03/27 07:47:37;;;;;;;9.30;6.32;;;;;;;;;;5044873;28;20074;-51
2022/03/27 07:50:03;;;;;;;9.70;6.63;;;;;;;;;;5064248;28;20484;-50
2022/03/27 07:52:28;;;;;;;22.77;20.67;;;;;;;;;;5060952;28;20267;-51
2022/03/27 07:54:54;;;;;;;44.93;37.20;;;;;;;;;;5045773;28;20574;-51
2022/03/27 07:57:20;;;;;;;18.73;15.38;;;;;;;;;;5061105;28;20255;-51
2022/03/27 07:59:45;;;;;;;22.50;19.52;;;;;;;;;;5046439;28;20064;-51
2022/03/27 08:02:11;;;;;;;19.50;17.65;;;;;;;;;;5064046;28;20656;-51
2022/03/27 08:04:36;;;;;;;34.50;30.67;;;;;;;;;;5063555;28;20494;-51
2022/03/27 08:07:01;;;;;;;31.10;28.00;;;;;;;;;;5064317;28;20021;-52
2022/03/27 08:09:27;;;;;;;27.83;25.35;;;;;;;;;;5057857;28;20336;-50
2022/03/27 08:11:52;;;;;;;39.92;35.85;;;;;;;;;;5062163;28;20036;-51
2022/03/27 08:14:18;;;;;;;24.77;22.23;;;;;;;;;;5063889;28;20024;-51
2022/03/27 08:16:43;;;;;;;33.85;30.48;;;;;;;;;;5061318;28;20021;-49
2022/03/27 08:19:08;;;;;;;25.40;22.77;;;;;;;;;;5050557;28;20534;-48
2022/03/27 08:21:33;;;;;;;26.57;23.20;;;;;;;;;;5064168;28;20691;-50
2022/03/27 08:23:59;;;;;;;26.27;23.88;;;;;;;;;;5064045;28;20363;-49
2022/03/27 08:29:08;;;;;;;24.52;21.98;;;;;;;;;;5064260;28;20039;-50
2022/03/27 08:31:33;;;;;;;45.20;40.50;;;;;;;;;;5062443;28;20044;-50
2022/03/27 08:33:58;;;;;;;38.47;34.67;;;;;;;;;;5063715;28;20024;-50
2022/03/27 08:36:23;;;;;;;20.25;14.65;;;;;;;;;;5063286;28;20349;-50
2022/03/27 08:38:49;;;;;;;23.25;16.83;;;;;;;;;;5062784;28;20078;-50
2022/03/27 08:41:14;;;;;;;32.97;26.93;;;;;;;;;;5063929;28;20087;-50
2022/03/27 08:43:40;;;;;;;16.20;10.52;;;;;;;;;;5063880;28;20028;-50
2022/03/27 08:46:06;;;;;;;19.85;15.00;;;;;;;;;;5046186;28;20148;-50
2022/03/27 08:48:32;;;;;;;24.17;21.63;;;;;;;;;;5064007;28;20761;-50
2022/03/27 08:51:02;;;;;;;22.00;15.93;;;;;;;;;;5063861;28;20024;-50
2022/03/27 08:54:06;;;;;;;35.70;30.02;;;;;;;;;;5063840;28;20109;-49
2022/03/27 08:56:32;;;;;;;28.42;24.65;;;;;;;;;;4976445;28;20034;-50
2022/03/27 08:58:58;;;;;;;21.48;16.08;;;;;;;;;;4977055;28;20558;-50
2022/03/27 09:01:23;;;;;;;18.77;14.35;;;;;;;;;;5008746;28;20119;-49
2022/03/27 09:03:49;;;;;;;22.83;14.83;;;;;;;;;;5045724;28;20737;-50
2022/03/27 09:06:14;;;;;;;21.40;12.97;;;;;;;;;;5063746;28;20579;-50
2022/03/27 09:08:39;;;;;;;18.77;11.47;;;;;;;;;;5063261;28;20511;-49
2022/03/27 09:11:04;;;;;;;19.17;12.23;;;;;;;;;;5063490;28;20683;-49
2022/03/27 09:13:30;;;;;;;23.30;17.13;;;;;;;;;;5063116;28;20024;-50
2022/03/27 09:15:59;;;;;;;22.95;11.10;;;;;;;;;;5063401;28;20045;-50
2022/03/27 09:18:24;;;;;;;20.00;15.57;;;;;;;;;;5062784;28;20025;-50
2022/03/27 09:20:53;;;;;;;18.40;11.63;;;;;;;;;;5063285;28;20021;-50
2022/03/27 09:23:25;;;;;;;20.27;12.02;;;;;;;;;;5063137;28;20023;-51
2022/03/27 09:26:04;;;;;;;17.85;12.07;;;;;;;;;;5063227;28;20036;-50
2022/03/27 09:28:31;;;;;;;21.90;14.60;;;;;;;;;;5062763;28;20021;-50
2022/03/27 09:30:57;;;;;;;21.67;15.45;;;;;;;;;;5063058;28;20032;-50
2022/03/27 09:33:35;;;;;;;22.77;14.73;;;;;;;;;;5062656;28;20048;-49
2022/03/27 09:36:10;;;;;;;21.25;13.70;;;;;;;;;;5063111;28;20070;-49
2022/03/27 09:38:36;;;;;;;24.05;14.18;;;;;;;;;;5060807;28;20070;-50
2022/03/27 09:41:01;;;;;;;22.25;14.77;;;;;;;;;;5048206;28;20503;-49
2022/03/27 09:43:26;;;;;;;26.33;16.73;;;;;;;;;;5062646;28;20095;-49
2022/03/27 09:45:59;;;;;;;28.13;25.08;;;;;;;;;;5062797;28;20350;-50
2022/03/27 09:48:25;;;;;;;22.27;15.70;;;;;;;;;;5061789;28;20025;-50
2022/03/27 09:50:51;;;;;;;26.25;23.45;;;;;;;;;;5062486;28;20069;-49
2022/03/27 09:53:20;;;;;;;25.05;21.58;;;;;;;;;;5062710;28;20024;-49
2022/03/27 09:55:46;;;;;;;23.85;21.10;;;;;;;;;;5062498;28;20122;-50
2022/03/27 09:58:12;;;;;;;25.45;21.50;;;;;;;;;;5062539;28;20373;-50
2022/03/27 10:00:37;;;;;;;19.58;15.43;;;;;;;;;;5045604;28;20029;-49
2022/03/27 10:03:12;;;;;;;22.05;18.60;;;;;;;;;;5062612;28;20024;-51
2022/03/27 10:05:38;;;;;;;22.02;18.50;;;;;;;;;;5062244;28;20531;-50
2022/03/27 10:08:03;;;;;;;21.55;14.77;;;;;;;;;;5062233;28;20132;-49
2022/03/27 10:10:28;;;;;;;24.05;19.35;;;;;;;;;;5062198;28;20119;-49
2022/03/27 10:12:54;;;;;;;24.08;21.15;;;;;;;;;;5062641;28;20085;-50
2022/03/27 10:15:20;;;;;;;21.20;17.65;;;;;;;;;;5062261;28;20062;-50
2022/03/27 10:17:46;;;;;;;29.98;22.88;;;;;;;;;;5062862;28;20028;-49
2022/03/27 10:20:13;;;;;;;37.47;30.90;;;;;;;;;;5047470;28;20079;-49
2022/03/27 10:22:40;;;;;;;15.93;8.77;;;;;;;;;;5060465;28;20028;-50
2022/03/27 10:25:08;;;;;;;22.48;12.52;;;;;;;;;;5062258;28;20048;-49
2022/03/27 10:27:33;;;;;;;14.10;9.10;;;;;;;;;;5062256;28;20516;-50
2022/03/27 10:30:02;;;;;;;13.93;8.65;;;;;;;;;;5062323;28;20066;-50
2022/03/27 10:32:27;;;;;;;14.70;9.43;;;;;;;;;;5061622;28;20036;-49
2022/03/27 10:35:23;;;;;;;16.55;12.57;;;;;;;;;;5061618;28;20043;-50
2022/03/27 10:38:07;;;;;;;22.95;19.27;;;;;;;;;;4979077;28;20054;-50
2022/03/27 10:40:34;;;;;;;19.17;15.02;;;;;;;;;;5045509;28;20033;-51
2022/03/27 10:43:06;;;;;;;16.35;10.60;;;;;;;;;;5062057;28;20059;-51
2022/03/27 10:45:32;;;;;;;17.55;13.23;;;;;;;;;;5061954;28;20021;-51
2022/03/27 10:48:12;;;;;;;13.52;7.13;;;;;;;;;;5062056;28;20031;-51
2022/03/27 10:50:48;;;;;;;15.48;7.78;;;;;;;;;;5062424;28;20185;-51
2022/03/27 10:53:13;;;;;;;14.77;7.57;;;;;;;;;;5062786;28;20028;-51
2022/03/27 10:55:46;;;;;;;20.02;12.50;;;;;;;;;;5063614;28;20115;-51
2022/03/27 10:58:28;;;;;;;17.27;10.52;;;;;;;;;;5064702;28;20052;-50
2022/03/27 11:00:53;;;;;;;21.73;17.00;;;;;;;;;;5051775;28;20021;-53
2022/03/27 11:03:37;;;;;;;23.92;19.70;;;;;;;;;;5049064;28;20851;-50
2022/03/27 11:06:03;;;;;;;18.27;16.23;;;;;;;;;;5064317;28;20154;-51
2022/03/27 11:08:31;;;;;;;29.00;22.92;;;;;;;;;;5063097;28;20086;-51
2022/03/27 11:10:59;;;;;;;17.95;15.05;;;;;;;;;;5064714;28;20383;-51
2022/03/27 11:13:28;;;;;;;20.52;18.33;;;;;;;;;;5050771;28;20048;-51
2022/03/27 11:16:03;;;;;;;24.38;19.75;;;;;;;;;;5061205;28;20066;-50
2022/03/27 11:18:34;;;;;;;32.90;28.80;;;;;;;;;;5060341;28;20019;-51
2022/03/27 11:21:00;;;;;;;19.88;17.85;;;;;;;;;;5060817;28;20043;-51
2022/03/27 11:23:25;;;;;;;24.00;21.53;;;;;;;;;;5061041;28;20029;-50
2022/03/27 11:25:50;;;;;;;20.50;16.33;;;;;;;;;;5060580;28;20275;-51
2022/03/27 11:28:16;;;;;;;20.00;16.17;;;;;;;;;;5060706;28;20075;-51
2022/03/27 11:30:47;;;;;;;18.38;14.20;;;;;;;;;;5060320;28;20170;-50
2022/03/27 11:33:19;;;;;;;23.90;19.73;;;;;;;;;;5061113;28;20032;-51
2022/03/27 11:38:30;;;;;;;30.23;27.13;;;;;;;;;;5060934;28;20063;-51
2022/03/27 11:40:56;;;;;;;33.17;29.02;;;;;;;;;;5045030;28;20005;-51
2022/03/27 11:43:28;;;;;;;30.33;26.83;;;;;;;;;;5060405;28;20039;-51
2022/03/27 11:45:54;;;;;;;29.50;26.38;;;;;;;;;;5062204;28;20039;-50
2022/03/27 11:48:19;;;;;;;38.97;34.65;;;;;;;;;;5063319;28;20032;-51
2022/03/27 11:50:45;;;;;;;35.63;31.73;;;;;;;;;;5064284;28;20046;-51
2022/03/27 11:53:10;;;;;;;31.70;28.30;;;;;;;;;;5064834;28;20361;-51
2022/03/27 11:55:37;;;;;;;52.67;45.78;;;;;;;;;;5064507;28;20107;-51
2022/03/27 11:58:03;;;;;;;42.78;37.75;;;;;;;;;;5064255;28;20105;-51
2022/03/27 12:00:34;;;;;;;44.58;38.50;;;;;;;;;;5047495;28;20060;-50
2022/03/27 12:02:59;;;;;;;35.38;28.33;;;;;;;;;;5064530;28;20035;-51
2022/03/27 12:05:34;;;;;;;42.80;38.25;;;;;;;;;;5064870;28;20637;-51
2022/03/27 12:08:00;;;;;;;44.88;39.03;;;;;;;;;;5064070;28;20098;-51
2022/03/27 12:10:26;;;;;;;55.08;40.50;;;;;;;;;;5062741;28;20036;-51
2022/03/27 12:13:02;;;;;;;36.55;31.95;;;;;;;;;;5064344;28;20028;-50
2022/03/27 12:15:46;;;;;;;35.60;26.73;;;;;;;;;;5064343;28;20489;-51
2022/03/27 12:18:28;;;;;;;55.92;48.15;;;;;;;;;;5064295;28;20079;-50
2022/03/27 12:20:53;;;;;;;47.92;37.72;;;;;;;;;;5050185;28;20043;-51
2022/03/27 12:23:20;;;;;;;43.33;38.83;;;;;;;;;;5064404;28;20033;-50
2022/03/27 12:25:54;;;;;;;37.47;33.35;;;;;;;;;;5045938;28;20032;-51
2022/03/27 12:31:05;;;;;;;23.63;19.10;;;;;;;;;;5063730;28;20086;-51
2022/03/27 12:33:30;;;;;;;29.08;17.48;;;;;;;;;;5051141;28;20024;-51
2022/03/27 12:36:03;;;;;;;20.88;13.70;;;;;;;;;;5063718;28;20032;-52
2022/03/27 12:38:29;;;;;;;24.63;20.60;;;;;;;;;;5063584;28;20032;-49
2022/03/27 12:40:54;;;;;;;25.65;21.52;;;;;;;;;;5047016;28;20074;-51
2022/03/27 12:43:21;;;;;;;36.27;32.57;;;;;;;;;;5064061;28;20033;-50
2022/03/27 12:45:46;;;;;;;33.30;29.48;;;;;;;;;;5063670;28;20056;-52
2022/03/27 12:48:16;;;;;;;36.05;32.25;;;;;;;;;;5063677;28;20067;-52
2022/03/27 12:50:41;;;;;;;;;;;;;;;;;;5062580;28;20032;-52
2022/03/27 12:53:09;;;;;;;24.00;18.40;;;;;;;;;;5061656;28;19977;-52
2022/03/27 12:55:50;;;;;;;28.45;24.38;;;;;;;;;;5049660;28;20663;-53
2022/03/27 12:58:16;;;;;;;28.27;25.20;;;;;;;;;;5057466;28;20017;-51
2022/03/27 13:00:43;;;;;;;23.30;20.88;;;;;;;;;;5061325;28;20099;-52
2022/03/27 13:03:12;;;;;;;29.98;26.48;;;;;;;;;;5062831;28;20025;-51
2022/03/27 13:05:38;;;;;;;28.13;25.13;;;;;;;;;;5053835;28;20025;-51
2022/03/27 13:08:03;;;;;;;35.13;31.63;;;;;;;;;;5028298;28;20033;-50
2022/03/27 13:10:29;;;;;;;26.33;23.52;;;;;;;;;;5062817;28;20503;-50
2022/03/27 13:13:00;;;;;;;31.15;27.80;;;;;;;;;;5062862;28;20099;-51
2022/03/27 13:15:35;;;;;;;26.88;23.88;;;;;;;;;;5062918;28;20016;-51
2022/03/27 13:18:24;;;;;;;22.98;19.33;;;;;;;;;;5028899;28;20830;-51
2022/03/27 13:20:49;;;;;;;28.38;24.50;;;;;;;;;;5045884;28;20036;-51
2022/03/27 13:23:15;;;;;;;16.40;10.47;;;;;;;;;;5062993;28;20021;-51
2022/03/27 13:25:40;;;;;;;14.00;7.50;;;;;;;;;;5063144;28;20025;-52
2022/03/27 13:28:06;;;;;;;12.70;7.10;;;;;;;;;;5062939;28;20024;-51
2022/03/27 13:30:31;;;;;;;16.98;9.10;;;;;;;;;;5044491;28;20028;-53
2022/03/27 13:32:57;;;;;;;15.60;8.00;;;;;;;;;;5045105;28;20032;-52
2022/03/27 13:35:22;;;;;;;14.13;7.97;;;;;;;;;;5060338;28;20114;-51
2022/03/27 13:37:47;;;;;;;11.82;7.18;;;;;;;;;;5058285;28;20028;-51
2022/03/27 13:40:13;;;;;;;16.70;9.23;;;;;;;;;;5039401;28;20020;-52
2022/03/27 13:45:22;;;;;;;21.08;15.63;;;;;;;;;;5061839;28;20093;-52
2022/03/27 13:47:47;;;;;;;25.00;19.50;;;;;;;;;;5060856;28;20141;-52
2022/03/27 13:50:13;;;;;;;25.93;21.47;;;;;;;;;;5057537;28;20287;-52
2022/03/27 13:52:38;;;;;;;20.98;17.13;;;;;;;;;;5055429;28;20138;-52
2022/03/27 13:55:05;;;;;;;20.80;13.43;;;;;;;;;;5061906;28;20082;-52
2022/03/27 13:57:31;;;;;;;19.90;13.85;;;;;;;;;;5058309;28;20017;-52
2022/03/27 13:59:56;;;;;;;15.60;8.73;;;;;;;;;;5060817;28;20027;-52
2022/03/27 14:02:21;;;;;;;11.93;9.33;;;;;;;;;;5064610;28;20278;-52
2022/03/27 14:04:47;;;;;;;8.48;5.43;;;;;;;;;;5059173;28;20677;-52
2022/03/27 14:07:12;;;;;;;16.58;9.10;;;;;;;;;;5043907;28;20028;-52
2022/03/27 14:09:39;;;;;;;14.63;8.53;;;;;;;;;;5061450;28;20127;-52
2022/03/27 14:12:04;;;;;;;14.55;9.00;;;;;;;;;;5044239;28;20037;-52
2022/03/27 14:14:29;;;;;;;13.55;7.65;;;;;;;;;;5054599;28;20110;-52
2022/03/27 14:16:55;;;;;;;14.70;12.15;;;;;;;;;;5061515;28;20089;-52
2022/03/27 14:19:20;;;;;;;15.47;10.17;;;;;;;;;;5055373;28;20108;-52
2022/03/27 14:21:46;;;;;;;13.80;9.90;;;;;;;;;;5052568;28;20087;-52
2022/03/27 14:24:11;;;;;;;15.15;13.40;;;;;;;;;;5061874;28;20361;-52
2022/03/27 14:26:37;;;;;;;14.30;12.53;;;;;;;;;;5061901;28;20175;-52
2022/03/27 14:29:03;;;;;;;15.88;13.60;;;;;;;;;;5044058;28;20263;-52
2022/03/27 14:31:28;;;;;;;29.38;26.38;;;;;;;;;;5061813;28;20046;-52
2022/03/27 14:33:53;;;;;;;42.72;38.53;;;;;;;;;;5062233;28;20025;-52
2022/03/27 14:36:18;;;;;;;19.53;14.23;;;;;;;;;;5060289;28;20025;-53